createdAt,value
2024-04-26T00:02:19.396Z,48.50
2024-04-26T00:04:46.375Z,48.60
2024-04-26T00:07:13.189Z,48.40
2024-04-26T00:09:40.490Z,48.20
2024-04-26T00:12:07.703Z,48.30
2024-04-26T00:14:34.720Z,48.40
2024-04-26T00:17:01.621Z,48.10
2024-04-26T00:19:28.508Z,48.20
2024-04-26T00:21:55.320Z,48.30
2024-04-26T00:24:23.020Z,48.30
2024-04-26T00:26:51.740Z,48.10
2024-04-26T00:29:18.953Z,48.30
2024-04-26T00:31:46.022Z,47.90
2024-04-26T00:34:13.292Z,47.60
2024-04-26T00:36:41.620Z,47.60
2024-04-26T00:39:08.525Z,47.60
2024-04-26T00:41:35.807Z,47.80
2024-04-26T00:44:06.709Z,47.80
2024-04-26T00:46:33.658Z,47.60
2024-04-26T00:49:01.033Z,47.90
2024-04-26T00:51:28.279Z,47.80
2024-04-26T00:53:56.838Z,49.40
2024-04-26T00:56:25.547Z,47.50
2024-04-26T00:58:53.168Z,47.90
2024-04-26T01:01:20.709Z,48.00
2024-04-26T01:03:47.569Z,48.10
2024-04-26T01:06:14.496Z,48.20
2024-04-26T01:08:41.791Z,48.00
2024-04-26T01:11:12.062Z,47.40
2024-04-26T01:13:39.029Z,47.30
2024-04-26T01:16:06.280Z,47.10
2024-04-26T01:18:33.980Z,47.00
2024-04-26T01:21:00.947Z,49.20
2024-04-26T01:23:28.240Z,46.90
2024-04-26T01:25:56.136Z,46.90
2024-04-26T01:28:23.168Z,46.80
2024-04-26T01:30:49.967Z,46.80
2024-04-26T01:33:16.995Z,47.20
2024-04-26T01:35:43.937Z,46.80
2024-04-26T01:38:10.933Z,46.80
2024-04-26T01:40:37.756Z,46.30
2024-04-26T01:43:05.695Z,46.80
2024-04-26T01:45:32.455Z,45.00
2024-04-26T01:47:59.347Z,46.90
2024-04-26T01:50:26.625Z,47.00
2024-04-26T01:52:53.458Z,47.00
2024-04-26T01:55:20.228Z,47.00
2024-04-26T01:57:47.125Z,47.20
2024-04-26T02:00:13.968Z,47.10
2024-04-26T02:02:40.857Z,47.30
2024-04-26T02:05:07.767Z,47.20
2024-04-26T02:07:34.570Z,47.20
2024-04-26T02:10:01.363Z,48.10
2024-04-26T02:12:28.219Z,47.50
2024-04-26T02:14:55.013Z,47.20
2024-04-26T02:17:21.897Z,47.70
2024-04-26T02:19:48.750Z,47.80
2024-04-26T02:22:15.545Z,47.60
2024-04-26T02:24:42.297Z,47.60
2024-04-26T02:27:09.251Z,47.50
2024-04-26T02:29:36.189Z,47.60
2024-04-26T02:32:03.192Z,47.40
2024-04-26T02:34:31.580Z,47.40
2024-04-26T02:36:58.372Z,47.50
2024-04-26T02:39:25.137Z,47.40
2024-04-26T02:41:51.922Z,47.40
2024-04-26T02:44:18.697Z,47.40
2024-04-26T02:46:45.479Z,47.50
2024-04-26T02:49:12.295Z,47.40
2024-04-26T02:51:39.056Z,47.40
2024-04-26T02:54:06.066Z,47.50
2024-04-26T02:56:33.034Z,47.50
2024-04-26T02:58:59.935Z,49.60
2024-04-26T03:01:26.751Z,47.60
2024-04-26T03:03:53.528Z,47.50
2024-04-26T03:06:20.485Z,47.60
2024-04-26T03:08:47.376Z,47.60
2024-04-26T03:11:19.222Z,47.60
2024-04-26T03:13:46.153Z,47.60
2024-04-26T03:16:13.056Z,47.60
2024-04-26T03:18:40.022Z,47.60
2024-04-26T03:21:07.026Z,47.60
2024-04-26T03:23:33.987Z,47.70
2024-04-26T03:26:00.865Z,47.80
2024-04-26T03:28:27.789Z,47.60
2024-04-26T03:30:54.842Z,47.80
2024-04-26T03:33:22.348Z,47.60
2024-04-26T03:35:49.276Z,47.70
2024-04-26T03:38:16.530Z,47.70
2024-04-26T03:40:43.343Z,47.70
2024-04-26T03:43:14.604Z,47.70
2024-04-26T03:45:41.621Z,47.70
2024-04-26T03:48:08.593Z,47.70
2024-04-26T03:50:35.587Z,47.60
2024-04-26T03:53:02.347Z,47.60
2024-04-26T03:55:29.196Z,47.60
2024-04-26T03:57:55.942Z,47.50
2024-04-26T04:00:22.765Z,47.60
2024-04-26T04:02:49.685Z,47.60
2024-04-26T04:05:18.252Z,47.50
2024-04-26T04:07:45.041Z,47.60
2024-04-26T04:10:11.813Z,47.50
2024-04-26T04:12:38.800Z,48.20
2024-04-26T04:15:05.989Z,47.60
2024-04-26T04:17:32.985Z,47.60
2024-04-26T04:19:59.863Z,47.50
2024-04-26T04:22:26.617Z,48.10
2024-04-26T04:24:53.405Z,47.50
2024-04-26T04:27:20.211Z,47.60
2024-04-26T04:29:47.115Z,47.60
2024-04-26T04:32:14.590Z,47.60
2024-04-26T04:34:41.767Z,47.50
2024-04-26T04:37:08.672Z,47.50
2024-04-26T04:39:35.426Z,47.50
2024-04-26T04:42:02.545Z,47.50
2024-04-26T04:44:29.394Z,47.40
2024-04-26T04:46:56.486Z,47.40
2024-04-26T04:49:23.373Z,47.40
2024-04-26T04:51:50.162Z,47.40
2024-04-26T04:54:17.080Z,47.40
2024-04-26T04:56:43.912Z,47.40
2024-04-26T04:59:11.389Z,47.30
2024-04-26T05:01:38.249Z,47.20
2024-04-26T05:04:05.254Z,47.30
2024-04-26T05:06:32.110Z,47.30
2024-04-26T05:08:59.029Z,47.20
2024-04-26T05:11:26.072Z,47.20
2024-04-26T05:13:52.859Z,47.10
2024-04-26T05:16:19.666Z,47.10
2024-04-26T05:18:46.762Z,47.10
2024-04-26T05:21:13.805Z,47.10
2024-04-26T05:23:40.806Z,47.10
2024-04-26T05:26:07.640Z,47.10
2024-04-26T05:28:34.428Z,47.10
2024-04-26T05:31:01.299Z,47.10
2024-04-26T05:33:28.204Z,47.10
2024-04-26T05:35:55.073Z,47.20
2024-04-26T05:38:23.121Z,47.20
2024-04-26T05:40:49.964Z,47.10
2024-04-26T05:43:17.834Z,49.40
2024-04-26T05:45:44.632Z,47.10
2024-04-26T05:48:11.689Z,47.20
2024-04-26T05:50:38.699Z,47.10
2024-04-26T05:53:07.950Z,47.10
2024-04-26T05:55:34.734Z,47.10
2024-04-26T05:58:01.510Z,47.10
2024-04-26T06:00:30.483Z,47.10
2024-04-26T06:02:57.762Z,47.20
2024-04-26T06:05:24.823Z,47.30
2024-04-26T06:07:52.749Z,47.40
2024-04-26T06:10:19.650Z,47.50
2024-04-26T06:12:50.205Z,47.40
2024-04-26T06:15:18.275Z,47.30
2024-04-26T06:17:45.448Z,47.30
2024-04-26T06:20:12.782Z,46.70
2024-04-26T06:22:39.612Z,47.10
2024-04-26T06:25:06.548Z,47.10
2024-04-26T06:27:34.917Z,47.20
2024-04-26T06:30:02.018Z,47.40
2024-04-26T06:32:29.036Z,47.30
2024-04-26T06:34:55.933Z,47.20
2024-04-26T06:37:22.720Z,47.20
2024-04-26T06:39:49.572Z,47.20
2024-04-26T06:42:16.389Z,47.30
2024-04-26T06:44:48.136Z,47.90
2024-04-26T06:47:18.344Z,47.50
2024-04-26T06:49:45.348Z,47.40
2024-04-26T06:52:13.325Z,47.50
2024-04-26T06:54:40.126Z,47.60
2024-04-26T06:57:07.083Z,47.40
2024-04-26T06:59:33.936Z,47.30
2024-04-26T07:02:02.741Z,47.30
2024-04-26T07:04:30.171Z,47.40
2024-04-26T07:06:57.035Z,47.40
2024-04-26T07:09:23.826Z,47.30
2024-04-26T07:11:50.666Z,47.40
2024-04-26T07:14:18.216Z,47.40
2024-04-26T07:16:44.977Z,47.40
2024-04-26T07:19:12.073Z,47.30
2024-04-26T07:21:38.942Z,47.30
2024-04-26T07:24:05.928Z,47.40
2024-04-26T07:26:34.068Z,47.30
2024-04-26T07:29:15.953Z,47.40
2024-04-26T07:31:50.473Z,47.40
2024-04-26T07:34:17.531Z,47.30
2024-04-26T07:36:44.587Z,47.30
2024-04-26T07:39:11.651Z,47.20
2024-04-26T07:41:38.565Z,47.30
2024-04-26T07:44:05.698Z,47.30
2024-04-26T07:46:32.496Z,47.30
2024-04-26T07:49:00.090Z,47.40
2024-04-26T07:51:27.170Z,47.60
2024-04-26T07:53:53.955Z,47.60
2024-04-26T07:56:20.821Z,47.50
2024-04-26T07:58:48.218Z,47.50
2024-04-26T08:01:15.914Z,47.50
2024-04-26T08:03:43.043Z,47.60
2024-04-26T08:06:10.158Z,47.70
2024-04-26T08:08:37.029Z,47.80
2024-04-26T08:11:03.895Z,47.80
2024-04-26T08:13:30.694Z,47.60
2024-04-26T08:15:57.499Z,47.20
2024-04-26T08:18:24.500Z,47.30
2024-04-26T08:20:52.250Z,47.40
2024-04-26T08:23:19.063Z,47.40
2024-04-26T08:25:45.877Z,47.30
2024-04-26T08:28:12.808Z,47.10
2024-04-26T08:30:39.671Z,46.90
2024-04-26T08:33:08.067Z,46.80
2024-04-26T08:35:36.722Z,46.80
2024-04-26T08:38:04.022Z,47.00
2024-04-26T08:40:31.157Z,46.90
2024-04-26T08:42:58.267Z,47.00
2024-04-26T08:45:26.326Z,46.70
2024-04-26T08:47:53.565Z,46.50
2024-04-26T08:50:20.951Z,46.50
2024-04-26T08:52:49.849Z,46.30
2024-04-26T08:55:16.667Z,46.10
2024-04-26T08:57:43.834Z,45.80
2024-04-26T09:00:13.993Z,45.70
2024-04-26T09:02:41.403Z,45.50
2024-04-26T09:05:08.610Z,45.30
2024-04-26T09:07:36.275Z,45.30
2024-04-26T09:10:03.208Z,45.30
2024-04-26T09:12:30.679Z,45.30
2024-04-26T09:17:19.431Z,46.20
2024-04-26T09:19:46.913Z,46.00
2024-04-26T09:22:14.438Z,46.30
2024-04-26T09:24:41.260Z,46.30
2024-04-26T09:27:08.115Z,46.10
2024-04-26T09:29:35.920Z,46.10
2024-04-26T09:32:12.963Z,45.80
2024-04-26T09:34:46.588Z,45.60
2024-04-26T09:37:13.858Z,47.60
2024-04-26T09:39:40.946Z,45.00
2024-04-26T09:42:10.015Z,45.30
2024-04-26T09:44:37.832Z,45.30
2024-04-26T09:47:05.134Z,45.20
2024-04-26T09:49:32.106Z,45.20
2024-04-26T09:52:00.564Z,45.10
2024-04-26T09:54:28.276Z,45.00
2024-04-26T09:56:55.070Z,44.70
2024-04-26T09:59:21.939Z,44.90
2024-04-26T10:01:49.173Z,45.20
2024-04-26T10:04:16.560Z,45.10
2024-04-26T10:06:43.992Z,45.00
2024-04-26T10:09:11.547Z,45.20
2024-04-26T10:11:51.530Z,45.10
2024-04-26T10:14:32.927Z,45.00
2024-04-26T10:17:09.619Z,44.80
2024-04-26T10:19:36.923Z,44.30
2024-04-26T10:22:07.882Z,44.00
2024-04-26T10:24:35.223Z,44.40
2024-04-26T10:27:04.574Z,44.40
2024-04-26T10:29:31.732Z,44.30
2024-04-26T10:32:08.535Z,44.00
2024-04-26T10:34:36.109Z,44.00
2024-04-26T10:37:03.997Z,43.90
2024-04-26T10:39:33.770Z,43.80
2024-04-26T10:42:01.008Z,43.50
2024-04-26T10:44:28.031Z,43.70
2024-04-26T10:46:55.626Z,43.60
2024-04-26T10:49:22.482Z,43.90
2024-04-26T10:51:49.436Z,43.90
2024-04-26T10:54:16.799Z,43.90
2024-04-26T10:56:43.917Z,44.00
2024-04-26T10:59:20.616Z,44.30
2024-04-26T11:01:53.887Z,44.40
2024-04-26T11:04:21.863Z,44.40
2024-04-26T11:06:50.478Z,44.50
2024-04-26T11:09:19.089Z,44.10
2024-04-26T11:11:49.362Z,44.10
2024-04-26T11:14:16.343Z,44.00
2024-04-26T11:16:44.883Z,44.10
2024-04-26T11:19:12.158Z,44.10
2024-04-26T11:21:39.216Z,43.10
2024-04-26T11:24:06.588Z,44.70
2024-04-26T11:26:34.982Z,44.80
2024-04-26T11:29:01.848Z,44.90
2024-04-26T11:31:28.740Z,44.70
2024-04-26T11:33:55.664Z,44.60
2024-04-26T11:36:22.755Z,44.80
2024-04-26T11:38:50.120Z,44.80
2024-04-26T11:41:17.077Z,44.60
2024-04-26T11:43:43.845Z,44.20
2024-04-26T11:46:11.085Z,44.10
2024-04-26T11:48:38.013Z,43.60
2024-04-26T11:51:05.043Z,43.70
2024-04-26T11:53:31.955Z,44.10
2024-04-26T11:55:59.571Z,43.80
2024-04-26T11:58:26.355Z,44.00
2024-04-26T12:00:53.136Z,44.10
2024-04-26T12:03:20.281Z,44.30
2024-04-26T12:05:48.154Z,44.40
2024-04-26T12:08:15.022Z,44.40
2024-04-26T12:10:41.994Z,44.30
2024-04-26T12:13:09.045Z,44.50
2024-04-26T12:15:38.825Z,44.70
2024-04-26T12:18:08.229Z,44.80
2024-04-26T12:20:35.146Z,44.90
2024-04-26T12:23:02.008Z,44.90
2024-04-26T12:25:28.796Z,44.90
2024-04-26T12:27:55.670Z,44.90
2024-04-26T12:30:27.801Z,45.00
2024-04-26T12:32:54.811Z,44.80
2024-04-26T12:35:21.631Z,44.80
2024-04-26T12:37:48.434Z,44.40
2024-04-26T12:40:15.359Z,45.20
2024-04-26T12:42:42.268Z,45.30
2024-04-26T12:45:12.823Z,45.30
2024-04-26T12:47:40.937Z,45.40
2024-04-26T12:50:08.200Z,45.50
2024-04-26T12:52:36.604Z,45.60
2024-04-26T12:55:03.934Z,45.60
2024-04-26T12:57:30.731Z,45.70
2024-04-26T12:59:57.606Z,45.70
2024-04-26T13:02:24.452Z,47.00
2024-04-26T13:04:51.232Z,45.70
2024-04-26T13:07:19.275Z,45.60
2024-04-26T13:09:46.163Z,45.70
2024-04-26T13:12:13.022Z,45.60
2024-04-26T13:14:39.921Z,45.70
2024-04-26T13:17:06.891Z,45.60
2024-04-26T13:19:33.996Z,45.80
2024-04-26T13:22:00.878Z,45.80
2024-04-26T13:24:27.704Z,46.00
2024-04-26T13:26:54.698Z,46.00
2024-04-26T13:29:23.219Z,46.00
2024-04-26T13:31:53.255Z,46.00
2024-04-26T13:34:20.705Z,45.90
2024-04-26T13:36:47.880Z,45.80
2024-04-26T13:39:15.054Z,45.60
2024-04-26T13:41:42.326Z,45.70
2024-04-26T13:44:11.882Z,45.10
2024-04-26T13:46:42.296Z,45.00
2024-04-26T13:49:09.381Z,45.00
2024-04-26T13:51:36.286Z,45.00
2024-04-26T13:54:03.497Z,45.30
2024-04-26T13:56:30.462Z,45.20
2024-04-26T13:58:57.654Z,45.20
2024-04-26T14:01:24.486Z,45.20
2024-04-26T14:03:51.851Z,45.30
2024-04-26T14:06:19.734Z,45.50
2024-04-26T14:08:50.712Z,45.30
2024-04-26T14:11:17.946Z,45.40
2024-04-26T14:13:44.921Z,45.50
2024-04-26T14:16:19.069Z,45.60
2024-04-26T14:18:47.904Z,45.50
2024-04-26T14:21:18.151Z,45.40
2024-04-26T14:23:45.854Z,45.60
2024-04-26T14:26:17.293Z,45.40
2024-04-26T14:28:44.053Z,45.40
2024-04-26T14:31:13.249Z,45.40
2024-04-26T14:33:43.170Z,45.20
2024-04-26T14:36:10.980Z,45.30
2024-04-26T14:38:37.910Z,45.50
2024-04-26T14:41:04.788Z,45.70
2024-04-26T14:43:31.764Z,45.50
2024-04-26T14:45:58.603Z,45.70
2024-04-26T14:48:25.397Z,45.80
2024-04-26T14:50:52.208Z,45.80
2024-04-26T14:53:18.994Z,46.00
2024-04-26T14:55:46.016Z,46.10
2024-04-26T14:58:14.822Z,46.10
2024-04-26T15:00:42.207Z,46.00
2024-04-26T15:03:09.145Z,45.90
2024-04-26T15:05:35.918Z,45.60
2024-04-26T15:08:02.724Z,45.90
2024-04-26T15:10:31.122Z,45.70
2024-04-26T15:12:58.044Z,47.10
2024-04-26T15:15:24.881Z,46.00
2024-04-26T15:17:52.233Z,46.10
2024-04-26T15:20:21.269Z,46.00
2024-04-26T15:22:48.181Z,46.00
2024-04-26T15:25:16.113Z,45.60
2024-04-26T15:27:43.317Z,45.90
2024-04-26T15:30:10.447Z,46.00
2024-04-26T15:32:40.199Z,46.00
2024-04-26T15:35:07.098Z,46.20
2024-04-26T15:37:33.896Z,46.10
2024-04-26T15:40:00.756Z,46.20
2024-04-26T15:42:27.518Z,46.20
2024-04-26T15:44:54.291Z,46.00
2024-04-26T15:47:21.167Z,46.10
2024-04-26T15:49:48.244Z,46.30
2024-04-26T15:52:16.018Z,46.60
2024-04-26T15:54:45.511Z,46.70
2024-04-26T15:57:12.373Z,46.60
2024-04-26T15:59:39.224Z,46.90
2024-04-26T16:02:06.854Z,46.90
2024-04-26T16:04:33.970Z,46.90
2024-04-26T16:07:01.639Z,46.90
2024-04-26T16:09:28.781Z,46.90
2024-04-26T16:11:55.590Z,46.90
2024-04-26T16:14:23.123Z,47.00
2024-04-26T16:16:49.970Z,47.10
2024-04-26T16:19:16.927Z,47.20
2024-04-26T16:21:44.054Z,47.20
2024-04-26T16:24:11.027Z,47.10
2024-04-26T16:26:37.975Z,47.20
2024-04-26T16:29:08.270Z,47.90
2024-04-26T16:31:35.268Z,47.50
2024-04-26T16:34:02.096Z,47.40
2024-04-26T16:36:29.547Z,47.50
2024-04-26T16:38:57.286Z,47.60
2024-04-26T16:41:25.861Z,47.40
2024-04-26T16:43:53.976Z,47.40
2024-04-26T16:46:21.334Z,47.50
2024-04-26T16:48:48.688Z,47.60
2024-04-26T16:51:15.465Z,47.60
2024-04-26T16:53:42.248Z,47.70
2024-04-26T16:56:09.029Z,47.50
2024-04-26T16:58:35.843Z,47.50
2024-04-26T17:01:06.001Z,47.60
2024-04-26T17:03:32.862Z,47.70
2024-04-26T17:05:59.822Z,47.80
2024-04-26T17:08:26.602Z,47.10
2024-04-26T17:10:56.520Z,46.20
2024-04-26T17:13:23.710Z,45.60
2024-04-26T17:15:50.579Z,45.20
2024-04-26T17:18:17.525Z,45.60
2024-04-26T17:20:44.360Z,45.10
2024-04-26T17:23:11.143Z,45.20
2024-04-26T17:25:38.059Z,45.10
2024-04-26T17:28:05.296Z,45.00
2024-04-26T17:30:33.890Z,44.70
2024-04-26T17:33:00.958Z,44.70
2024-04-26T17:35:32.661Z,45.40
2024-04-26T17:37:59.543Z,45.80
2024-04-26T17:40:27.268Z,45.80
2024-04-26T17:42:54.214Z,45.70
2024-04-26T17:45:20.977Z,45.50
2024-04-26T17:47:47.828Z,45.40
2024-04-26T17:50:15.669Z,45.30
2024-04-26T17:52:42.561Z,45.20
2024-04-26T17:55:10.743Z,44.90
2024-04-26T17:57:38.696Z,44.90
2024-04-26T18:00:05.903Z,45.30
2024-04-26T18:02:32.690Z,45.00
2024-04-26T18:04:59.546Z,45.60
2024-04-26T18:07:26.345Z,45.00
2024-04-26T18:09:53.148Z,45.10
2024-04-26T18:12:20.628Z,45.20
2024-04-26T18:14:48.481Z,45.00
2024-04-26T18:17:15.322Z,45.00
2024-04-26T18:19:42.198Z,45.40
2024-04-26T18:22:09.137Z,45.00
2024-04-26T18:24:38.684Z,45.20
2024-04-26T18:27:05.942Z,45.20
2024-04-26T18:29:32.735Z,45.40
2024-04-26T18:31:59.607Z,45.40
2024-04-26T18:34:26.455Z,45.40
2024-04-26T18:36:53.253Z,45.30
2024-04-26T18:39:20.104Z,45.60
2024-04-26T18:41:46.877Z,45.50
2024-04-26T18:44:13.897Z,45.60
2024-04-26T18:46:40.772Z,45.50
2024-04-26T18:49:07.667Z,45.70
2024-04-26T18:51:34.443Z,45.70
2024-04-26T18:54:01.338Z,45.40
2024-04-26T18:56:28.267Z,45.30
2024-04-26T18:58:55.198Z,45.10
2024-04-26T19:01:22.127Z,45.70
2024-04-26T19:03:48.962Z,45.40
2024-04-26T19:06:18.634Z,45.30
2024-04-26T19:08:45.446Z,45.40
2024-04-26T19:11:20.422Z,45.30
2024-04-26T19:13:47.329Z,45.80
2024-04-26T19:16:14.093Z,45.50
2024-04-26T19:18:40.983Z,45.60
2024-04-26T19:21:07.789Z,47.60
2024-04-26T19:23:34.564Z,47.90
2024-04-26T19:26:01.500Z,47.10
2024-04-26T19:28:28.468Z,48.10
2024-04-26T19:30:55.337Z,48.90
2024-04-26T19:33:22.206Z,48.70
2024-04-26T19:35:49.059Z,49.20
2024-04-26T19:38:19.090Z,48.50
2024-04-26T19:40:46.095Z,48.20
2024-04-26T19:43:13.032Z,48.40
2024-04-26T19:45:39.810Z,50.30
2024-04-26T19:48:06.759Z,52.40
2024-04-26T20:47:42.928Z,46.40
2024-04-26T20:59:58.977Z,46.50
2024-04-26T21:04:53.110Z,56.40
2024-04-26T21:39:15.787Z,46.30
2024-04-26T22:21:12.550Z,46.10
2024-04-26T22:23:39.478Z,46.70
2024-04-26T22:26:06.592Z,46.90
2024-04-26T22:28:33.532Z,47.50
2024-04-26T22:31:00.384Z,47.40
2024-04-26T22:33:27.322Z,47.30
2024-04-26T22:35:54.209Z,47.30
2024-04-26T22:38:20.985Z,47.40
2024-04-26T22:40:47.803Z,47.30
2024-04-26T22:43:14.575Z,47.60
2024-04-26T22:45:41.364Z,47.50
2024-04-26T22:48:08.308Z,47.40
2024-04-26T22:50:35.156Z,47.50
2024-04-26T22:53:05.015Z,47.50
2024-04-26T22:55:31.853Z,47.60
2024-04-26T22:57:58.721Z,47.80
2024-04-26T23:00:25.488Z,47.80
2024-04-26T23:02:52.332Z,47.70
2024-04-26T23:05:19.299Z,47.50
2024-04-26T23:07:46.088Z,47.50
2024-04-26T23:10:12.994Z,47.50
2024-04-26T23:12:39.871Z,47.50
2024-04-26T23:15:06.944Z,47.50
2024-04-26T23:17:33.819Z,47.50
2024-04-26T23:20:00.746Z,47.50
2024-04-26T23:22:27.619Z,47.50
2024-04-26T23:24:54.505Z,47.50
2024-04-26T23:27:21.361Z,47.50
2024-04-26T23:29:51.052Z,47.50
2024-04-26T23:32:19.635Z,47.40
2024-04-26T23:34:46.575Z,47.30
2024-04-26T23:37:13.464Z,47.40
2024-04-26T23:39:40.281Z,47.10
2024-04-26T23:42:07.276Z,47.20
2024-04-26T23:44:34.069Z,47.10
2024-04-26T23:47:01.006Z,47.10
2024-04-26T23:49:27.925Z,47.10
2024-04-26T23:51:54.726Z,47.10
2024-04-26T23:54:21.510Z,47.20
2024-04-26T23:56:48.556Z,47.10
2024-04-26T23:59:15.370Z,47.20
